createdAt,value
2018-05-26T00:01:37.943Z,15.54
2018-05-26T00:04:06.125Z,15.53
2018-05-26T00:06:34.305Z,15.53
2018-05-26T00:09:02.486Z,15.52
2018-05-26T00:11:30.680Z,15.53
2018-05-26T00:13:58.911Z,15.54
2018-05-26T00:16:27.138Z,15.52
2018-05-26T00:18:55.318Z,15.50
2018-05-26T00:21:26.735Z,15.48
2018-05-26T00:23:54.897Z,15.43
2018-05-26T00:26:26.921Z,15.39
2018-05-26T00:28:55.184Z,15.36
2018-05-26T00:31:28.820Z,15.35
2018-05-26T00:33:58.336Z,15.35
2018-05-26T00:36:26.527Z,15.33
2018-05-26T00:38:54.717Z,15.30
2018-05-26T00:41:22.875Z,15.29
2018-05-26T00:46:39.360Z,15.29
2018-05-26T00:49:07.607Z,15.27
2018-05-26T00:51:36.112Z,15.28
2018-05-26T00:54:04.318Z,15.25
2018-05-26T00:56:32.513Z,15.23
2018-05-26T00:59:00.695Z,15.19
2018-05-26T01:01:28.901Z,15.15
2018-05-26T01:03:57.071Z,15.12
2018-05-26T01:06:26.306Z,15.10
2018-05-26T01:08:54.477Z,15.09
2018-05-26T01:11:22.668Z,15.08
2018-05-26T01:13:50.830Z,15.09
2018-05-26T01:16:19.033Z,15.07
2018-05-26T01:18:47.206Z,15.05
2018-05-26T01:21:16.203Z,15.01
2018-05-26T01:23:44.391Z,15.00
2018-05-26T01:26:14.228Z,14.97
2018-05-26T01:28:52.660Z,14.95
2018-05-26T01:31:20.843Z,14.92
2018-05-26T01:33:49.017Z,14.89
2018-05-26T01:36:23.285Z,14.86
2018-05-26T01:38:51.479Z,14.80
2018-05-26T01:41:21.284Z,14.79
2018-05-26T01:44:06.259Z,14.76
2018-05-26T01:46:34.441Z,14.73
2018-05-26T01:49:02.657Z,14.72
2018-05-26T01:51:30.826Z,14.70
2018-05-26T01:53:58.995Z,14.69
2018-05-26T01:56:27.185Z,14.67
2018-05-26T01:58:55.334Z,14.66
2018-05-26T02:01:26.006Z,14.65
2018-05-26T02:03:54.185Z,14.63
2018-05-26T02:06:22.367Z,14.61
2018-05-26T02:08:50.534Z,14.61
2018-05-26T02:11:18.765Z,14.61
2018-05-26T02:13:48.190Z,14.58
2018-05-26T02:16:16.365Z,14.56
2018-05-26T02:18:44.565Z,14.54
2018-05-26T02:21:12.761Z,14.53
2018-05-26T02:23:41.283Z,14.51
2018-05-26T02:26:14.375Z,14.48
2018-05-26T02:28:42.531Z,14.49
2018-05-26T02:31:10.694Z,14.47
2018-05-26T02:33:38.872Z,14.45
2018-05-26T02:36:10.110Z,14.46
2018-05-26T02:38:40.676Z,14.48
2018-05-26T02:41:08.841Z,14.50
2018-05-26T02:43:37.049Z,14.54
2018-05-26T02:46:05.247Z,14.53
2018-05-26T02:48:33.443Z,14.55
2018-05-26T02:51:01.607Z,14.57
2018-05-26T02:53:29.801Z,14.56
2018-05-26T02:55:57.977Z,14.55
2018-05-26T02:58:26.171Z,14.53
2018-05-26T03:00:54.819Z,14.49
2018-05-26T03:03:22.989Z,14.48
2018-05-26T03:05:56.779Z,14.46
2018-05-26T03:08:30.573Z,14.50
2018-05-26T03:11:04.481Z,14.58
2018-05-26T03:13:38.248Z,14.60
2018-05-26T03:16:13.073Z,14.60
2018-05-26T03:18:41.241Z,14.62
2018-05-26T03:21:09.421Z,14.63
2018-05-26T03:23:38.289Z,14.64
2018-05-26T03:26:09.479Z,14.65
2018-05-26T03:28:37.733Z,14.64
2018-05-26T03:31:05.903Z,14.66
2018-05-26T03:33:34.069Z,14.71
2018-05-26T03:36:02.249Z,14.76
2018-05-26T03:38:30.417Z,14.81
2018-05-26T03:40:58.594Z,14.85
2018-05-26T03:43:26.760Z,14.85
2018-05-26T03:45:54.917Z,14.85
2018-05-26T03:48:23.073Z,14.85
2018-05-26T03:50:51.232Z,14.82
2018-05-26T03:53:19.417Z,14.79
2018-05-26T03:55:59.384Z,14.80
2018-05-26T03:58:39.294Z,14.80
2018-05-26T04:01:07.775Z,14.77
2018-05-26T04:03:35.992Z,14.80
2018-05-26T04:06:08.076Z,14.85
2018-05-26T04:08:36.209Z,14.86
2018-05-26T04:11:04.395Z,14.89
2018-05-26T04:13:32.551Z,14.89
2018-05-26T04:16:00.734Z,14.90
2018-05-26T04:18:30.555Z,14.87
2018-05-26T04:21:02.432Z,14.84
2018-05-26T04:23:30.607Z,14.84
2018-05-26T04:25:58.803Z,14.84
2018-05-26T04:28:26.975Z,14.85
2018-05-26T04:30:55.140Z,14.86
2018-05-26T04:33:26.757Z,14.85
2018-05-26T04:35:54.947Z,14.86
2018-05-26T04:38:23.157Z,14.88
2018-05-26T04:40:51.339Z,14.89
2018-05-26T04:43:19.509Z,14.90
2018-05-26T04:45:47.697Z,14.90
2018-05-26T04:48:16.286Z,14.85
2018-05-26T04:50:44.446Z,14.83
2018-05-26T04:53:12.633Z,14.86
2018-05-26T04:55:40.791Z,14.88
2018-05-26T04:58:08.993Z,14.91
2018-05-26T05:00:37.178Z,14.95
2018-05-26T05:03:05.367Z,14.97
2018-05-26T05:05:33.539Z,14.97
2018-05-26T05:08:01.745Z,15.01
2018-05-26T05:10:29.925Z,15.05
2018-05-26T05:12:58.088Z,15.03
2018-05-26T05:15:26.273Z,15.00
2018-05-26T05:17:54.439Z,14.94
2018-05-26T05:20:22.619Z,14.97
2018-05-26T05:22:50.801Z,14.99
2018-05-26T05:25:18.978Z,15.07
2018-05-26T05:27:47.149Z,15.16
2018-05-26T05:30:15.365Z,15.19
2018-05-26T05:32:43.523Z,15.21
2018-05-26T05:35:11.718Z,15.23
2018-05-26T05:37:41.121Z,15.29
2018-05-26T05:40:09.321Z,15.38
2018-05-26T05:42:37.517Z,15.47
2018-05-26T05:45:05.693Z,15.53
2018-05-26T05:47:33.881Z,15.51
2018-05-26T05:50:03.489Z,15.53
2018-05-26T05:52:31.675Z,15.52
2018-05-26T05:54:59.844Z,15.45
2018-05-26T05:57:28.021Z,15.39
2018-05-26T05:59:56.204Z,15.37
2018-05-26T06:02:28.229Z,15.40
2018-05-26T06:04:56.424Z,15.44
2018-05-26T06:07:24.602Z,15.47
2018-05-26T06:09:52.761Z,15.50
2018-05-26T06:12:20.917Z,15.54
2018-05-26T06:14:49.123Z,15.56
2018-05-26T06:17:17.308Z,15.59
2018-05-26T06:19:45.484Z,15.62
2018-05-26T06:22:17.470Z,15.68
2018-05-26T06:24:45.618Z,15.75
2018-05-26T06:27:13.779Z,15.81
2018-05-26T06:29:47.756Z,15.88
2018-05-26T06:32:15.926Z,15.92
2018-05-26T06:34:44.114Z,16.03
2018-05-26T06:37:12.278Z,16.11
2018-05-26T06:39:46.302Z,16.16
2018-05-26T06:42:14.471Z,16.21
2018-05-26T06:44:42.637Z,16.22
2018-05-26T06:47:10.836Z,16.19
2018-05-26T06:49:39.962Z,16.18
2018-05-26T06:52:10.505Z,16.13
2018-05-26T06:54:39.352Z,16.17
2018-05-26T06:57:09.152Z,16.18
2018-05-26T06:59:37.349Z,16.23
2018-05-26T07:02:05.545Z,16.26
2018-05-26T07:04:33.725Z,16.32
2018-05-26T07:07:14.390Z,16.36
2018-05-26T07:09:42.593Z,16.38
2018-05-26T07:12:10.760Z,16.47
2018-05-26T07:14:39.492Z,16.48
2018-05-26T07:17:07.678Z,16.59
2018-05-26T07:19:35.852Z,16.65
2018-05-26T07:22:04.060Z,16.68
2018-05-26T07:24:32.238Z,16.73
2018-05-26T07:27:00.424Z,16.69
2018-05-26T07:29:28.626Z,16.73
2018-05-26T07:31:58.093Z,16.72
2018-05-26T07:34:27.242Z,16.82
2018-05-26T07:36:55.418Z,16.88
2018-05-26T07:39:23.611Z,16.77
2018-05-26T07:41:51.828Z,16.85
2018-05-26T07:44:26.176Z,16.94
2018-05-26T07:46:54.380Z,16.97
2018-05-26T07:49:22.564Z,17.03
2018-05-26T07:51:52.602Z,17.13
2018-05-26T07:54:20.787Z,17.14
2018-05-26T07:56:48.998Z,17.23
2018-05-26T07:59:20.790Z,17.37
2018-05-26T08:01:51.926Z,17.49
2018-05-26T08:04:20.115Z,17.64
2018-05-26T08:06:48.322Z,17.68
2018-05-26T08:09:16.499Z,17.72
2018-05-26T08:11:44.675Z,17.75
2018-05-26T08:14:12.876Z,17.88
2018-05-26T08:16:41.072Z,17.87
2018-05-26T08:19:10.161Z,17.94
2018-05-26T08:21:38.355Z,18.06
2018-05-26T08:24:06.532Z,18.09
2018-05-26T08:26:34.725Z,18.06
2018-05-26T08:29:02.934Z,18.07
2018-05-26T08:31:31.119Z,18.15
2018-05-26T08:33:59.375Z,18.14
2018-05-26T08:36:27.572Z,18.26
2018-05-26T08:38:55.750Z,18.33
2018-05-26T08:41:23.965Z,18.41
2018-05-26T08:43:52.173Z,18.56
2018-05-26T08:46:20.353Z,18.65
2018-05-26T08:48:48.519Z,18.80
2018-05-26T08:51:17.167Z,18.86
2018-05-26T08:53:45.355Z,18.98
2018-05-26T08:56:13.612Z,19.12
2018-05-26T08:58:41.775Z,19.24
2018-05-26T09:01:10.526Z,19.30
2018-05-26T09:03:38.715Z,19.33
2018-05-26T09:06:06.882Z,19.40
2018-05-26T09:08:35.049Z,19.51
2018-05-26T09:11:03.217Z,19.60
2018-05-26T09:13:35.080Z,19.74
2018-05-26T09:16:03.269Z,19.77
2018-05-26T09:18:31.423Z,19.76
2018-05-26T09:20:59.636Z,19.75
2018-05-26T09:23:27.890Z,19.79
2018-05-26T09:25:58.986Z,19.90
2018-05-26T09:28:27.199Z,20.00
2018-05-26T09:30:55.388Z,20.08
2018-05-26T09:33:24.616Z,20.18
2018-05-26T09:35:52.817Z,20.31
2018-05-26T09:38:20.982Z,20.38
2018-05-26T09:40:49.177Z,20.49
2018-05-26T09:43:17.346Z,20.56
2018-05-26T09:45:45.550Z,20.72
2018-05-26T09:48:13.722Z,20.81
2018-05-26T09:50:41.898Z,20.85
2018-05-26T09:53:10.125Z,21.02
2018-05-26T09:55:41.553Z,21.14
2018-05-26T09:58:09.744Z,21.27
2018-05-26T10:00:37.930Z,21.29
2018-05-26T10:03:06.140Z,21.37
2018-05-26T10:05:34.300Z,21.42
2018-05-26T10:08:02.473Z,21.48
2018-05-26T10:10:32.851Z,21.67
2018-05-26T10:13:01.030Z,21.78
2018-05-26T10:15:29.182Z,21.89
2018-05-26T10:18:02.076Z,21.96
2018-05-26T10:20:30.233Z,22.01
2018-05-26T10:22:58.416Z,22.06
2018-05-26T10:25:26.563Z,22.21
2018-05-26T10:27:54.747Z,22.35
2018-05-26T10:30:22.976Z,22.43
2018-05-26T10:32:51.151Z,22.53
2018-05-26T10:35:19.815Z,22.60
2018-05-26T10:37:47.993Z,22.67
2018-05-26T10:40:19.811Z,22.73
2018-05-26T10:42:47.976Z,22.82
2018-05-26T10:45:16.138Z,22.89
2018-05-26T10:47:44.568Z,22.91
2018-05-26T10:50:16.562Z,23.00
2018-05-26T10:52:44.732Z,23.02
2018-05-26T10:55:13.576Z,23.01
2018-05-26T10:57:41.743Z,23.06
2018-05-26T11:00:09.901Z,23.11
2018-05-26T11:02:38.100Z,23.20
2018-05-26T11:05:06.263Z,23.30
2018-05-26T11:07:34.434Z,23.47
2018-05-26T11:10:02.638Z,23.57
2018-05-26T11:12:30.806Z,23.65
2018-05-26T11:14:58.937Z,23.66
2018-05-26T11:17:27.138Z,23.71
2018-05-26T11:19:55.318Z,23.68
2018-05-26T11:22:23.492Z,23.68
2018-05-26T11:24:51.675Z,23.68
2018-05-26T11:27:19.942Z,23.74
2018-05-26T11:29:48.182Z,23.83
2018-05-26T11:32:20.144Z,23.94
2018-05-26T11:34:48.298Z,24.05
2018-05-26T11:37:16.462Z,24.09
2018-05-26T11:39:44.638Z,24.03
2018-05-26T11:42:13.045Z,24.01
2018-05-26T11:44:41.243Z,23.90
2018-05-26T11:47:09.399Z,23.98
2018-05-26T11:49:37.575Z,24.16
2018-05-26T11:52:05.741Z,24.39
2018-05-26T11:54:33.911Z,24.50
2018-05-26T11:57:02.084Z,24.40
2018-05-26T11:59:30.261Z,24.40
2018-05-26T12:01:58.429Z,24.41
2018-05-26T12:04:26.600Z,24.52
2018-05-26T12:06:54.776Z,24.65
2018-05-26T12:09:25.349Z,24.72
2018-05-26T12:11:53.556Z,24.82
2018-05-26T12:14:21.713Z,24.81
2018-05-26T12:16:49.879Z,24.84
2018-05-26T12:19:18.248Z,24.88
2018-05-26T12:21:46.453Z,24.87
2018-05-26T12:26:47.344Z,24.96
2018-05-26T12:29:16.626Z,25.22
2018-05-26T12:31:45.768Z,25.39
2018-05-26T12:34:14.894Z,25.40
2018-05-26T12:36:44.087Z,25.43
2018-05-26T12:39:12.263Z,25.62
2018-05-26T12:41:40.428Z,25.59
2018-05-26T12:44:08.592Z,25.73
2018-05-26T12:46:36.758Z,25.88
2018-05-26T12:49:04.952Z,25.90
2018-05-26T12:51:35.607Z,25.81
2018-05-26T12:54:04.551Z,26.00
2018-05-26T12:56:32.702Z,26.05
2018-05-26T12:59:00.855Z,26.08
2018-05-26T13:01:29.027Z,25.80
2018-05-26T13:03:57.197Z,25.78
2018-05-26T13:06:25.402Z,25.66
2018-05-26T13:08:53.581Z,25.80
2018-05-26T13:11:21.782Z,25.96
2018-05-26T13:13:49.955Z,26.04
2018-05-26T13:16:20.922Z,26.13
2018-05-26T13:18:49.829Z,26.21
2018-05-26T13:21:21.750Z,26.27
2018-05-26T13:23:49.902Z,26.36
2018-05-26T13:26:18.080Z,26.38
2018-05-26T13:28:46.256Z,26.63
2018-05-26T13:31:14.520Z,26.85
2018-05-26T13:33:42.711Z,26.95
2018-05-26T13:36:10.885Z,27.03
2018-05-26T13:38:39.054Z,26.68
2018-05-26T13:41:07.231Z,26.68
2018-05-26T13:43:35.417Z,26.53
2018-05-26T13:46:03.627Z,26.36
2018-05-26T13:48:31.838Z,26.28
2018-05-26T13:51:00.014Z,26.19
2018-05-26T13:53:28.282Z,26.12
2018-05-26T13:55:56.529Z,26.03
2018-05-26T13:58:24.601Z,26.06
2018-05-26T14:00:52.778Z,26.35
2018-05-26T14:03:21.242Z,26.73
2018-05-26T14:05:50.519Z,27.29
2018-05-26T14:08:18.706Z,27.92
2018-05-26T14:10:46.898Z,28.60
2018-05-26T14:13:15.074Z,28.95
2018-05-26T14:15:49.584Z,28.46
2018-05-26T14:18:17.765Z,28.20
2018-05-26T14:20:45.944Z,27.83
2018-05-26T14:23:14.120Z,27.62
2018-05-26T14:25:42.295Z,27.52
2018-05-26T14:28:11.061Z,28.02
2018-05-26T14:30:39.295Z,28.40
2018-05-26T14:33:07.405Z,28.88
2018-05-26T14:35:35.574Z,29.30
2018-05-26T14:38:03.754Z,29.72
2018-05-26T14:40:32.026Z,29.81
2018-05-26T14:43:00.199Z,30.24
2018-05-26T14:45:29.276Z,30.55
2018-05-26T14:47:57.465Z,30.60
2018-05-26T14:50:25.638Z,31.06
2018-05-26T14:52:54.548Z,31.51
2018-05-26T14:55:22.715Z,31.42
2018-05-26T14:57:50.896Z,30.46
2018-05-26T15:00:19.078Z,29.85
2018-05-26T15:02:47.295Z,29.73
2018-05-26T15:05:15.455Z,29.50
2018-05-26T15:07:43.668Z,28.92
2018-05-26T15:10:11.824Z,28.52
2018-05-26T15:12:40.037Z,28.35
2018-05-26T15:15:14.170Z,28.26
2018-05-26T15:17:42.340Z,28.63
2018-05-26T15:20:10.493Z,29.04
2018-05-26T15:22:38.678Z,29.40
2018-05-26T15:27:52.594Z,30.16
2018-05-26T15:30:20.780Z,30.45
2018-05-26T15:32:48.959Z,30.60
2018-05-26T15:35:17.152Z,30.92
2018-05-26T15:37:45.319Z,31.15
2018-05-26T15:40:13.483Z,31.46
2018-05-26T15:42:41.648Z,31.70
2018-05-26T15:45:13.152Z,31.62
2018-05-26T15:47:41.317Z,31.54
2018-05-26T15:50:09.487Z,31.49
2018-05-26T15:52:37.666Z,31.53
2018-05-26T15:55:05.819Z,30.80
2018-05-26T15:57:34.003Z,30.72
2018-05-26T16:07:15.270Z,30.28
2018-05-26T16:09:43.431Z,30.13
2018-05-26T16:12:11.588Z,29.77
2018-05-26T16:14:39.763Z,29.51
2018-05-26T16:17:15.803Z,29.26
2018-05-26T16:19:43.978Z,28.93
2018-05-26T16:22:12.142Z,28.46
2018-05-26T16:24:40.324Z,28.25
2018-05-26T16:27:08.446Z,28.04
2018-05-26T16:29:36.986Z,27.71
2018-05-26T16:32:05.135Z,27.40
2018-05-26T16:34:33.299Z,27.13
2018-05-26T16:37:01.482Z,26.88
2018-05-26T16:39:29.641Z,26.72
2018-05-26T16:41:58.510Z,26.58
2018-05-26T16:44:26.661Z,26.50
2018-05-26T16:46:54.855Z,26.38
2018-05-26T16:49:23.002Z,26.24
2018-05-26T16:51:51.153Z,26.09
2018-05-26T16:54:19.310Z,25.95
2018-05-26T16:56:47.490Z,25.87
2018-05-26T16:59:15.623Z,25.79
2018-05-26T17:01:43.796Z,25.72
2018-05-26T17:04:11.943Z,25.66
2018-05-26T17:06:40.928Z,25.56
2018-05-26T17:09:10.195Z,25.48
2018-05-26T17:11:38.385Z,25.39
2018-05-26T17:14:06.548Z,25.21
2018-05-26T17:36:25.275Z,24.67
2018-05-26T17:38:53.456Z,24.63
2018-05-26T17:41:25.079Z,24.58
2018-05-26T17:43:53.249Z,24.55
2018-05-26T17:46:21.425Z,24.56
2018-05-26T17:48:49.740Z,24.53
2018-05-26T17:51:20.877Z,24.51
2018-05-26T17:53:49.057Z,24.50
2018-05-26T17:56:17.244Z,24.40
2018-05-26T17:58:45.387Z,24.34
2018-05-26T18:01:13.576Z,24.29
2018-05-26T18:03:41.739Z,24.25
2018-05-26T18:06:09.951Z,24.19
2018-05-26T18:08:43.877Z,24.09
2018-05-26T18:11:12.326Z,23.93
2018-05-26T18:13:41.593Z,23.77
2018-05-26T18:16:12.822Z,23.65
2018-05-26T18:18:40.984Z,23.55
2018-05-26T18:21:09.157Z,23.46
2018-05-26T18:23:37.340Z,23.37
2018-05-26T18:26:05.502Z,23.30
2018-05-26T18:28:33.702Z,23.24
2018-05-26T18:31:01.968Z,23.16
2018-05-26T18:33:30.119Z,23.05
2018-05-26T18:35:58.262Z,22.95
2018-05-26T18:38:26.440Z,22.85
2018-05-26T18:40:54.620Z,22.79
2018-05-26T18:43:22.782Z,22.72
2018-05-26T18:45:50.965Z,22.63
2018-05-26T18:48:19.120Z,22.56
2018-05-26T18:50:47.407Z,22.51
2018-05-26T18:53:15.566Z,22.45
2018-05-26T18:55:43.760Z,22.38
2018-05-26T18:58:21.787Z,22.32
2018-05-26T19:00:49.962Z,22.26
2018-05-26T19:03:21.472Z,22.21
2018-05-26T19:05:49.676Z,22.14
2018-05-26T19:08:17.832Z,22.08
2018-05-26T19:10:46.033Z,22.05
2018-05-26T19:13:14.212Z,21.98
2018-05-26T19:15:42.362Z,21.93
2018-05-26T19:18:10.511Z,21.87
2018-05-26T19:20:38.958Z,21.81
2018-05-26T19:23:07.141Z,21.74
2018-05-26T19:25:35.313Z,21.69
2018-05-26T19:28:03.498Z,21.65
2018-05-26T19:30:31.673Z,21.57
2018-05-26T19:32:59.841Z,21.43
2018-05-26T19:35:27.992Z,21.35
2018-05-26T19:38:02.661Z,21.30
2018-05-26T19:40:30.844Z,21.20
2018-05-26T19:42:59.003Z,21.13
2018-05-26T19:45:28.217Z,21.07
2018-05-26T19:47:56.555Z,21.00
2018-05-26T19:50:24.741Z,20.97
2018-05-26T19:52:52.883Z,20.95
2018-05-26T19:55:21.069Z,20.90
2018-05-26T19:57:49.239Z,20.86
2018-05-26T20:00:19.088Z,20.81
2018-05-26T20:02:47.281Z,20.77
2018-05-26T20:05:16.152Z,20.70
2018-05-26T20:07:44.329Z,20.66
2018-05-26T20:10:12.503Z,20.63
2018-05-26T20:12:40.671Z,20.60
2018-05-26T20:15:15.051Z,20.52
2018-05-26T20:17:43.230Z,20.45
2018-05-26T20:20:11.390Z,20.37
2018-05-26T20:22:39.593Z,20.31
2018-05-26T20:25:08.608Z,20.23
2018-05-26T20:27:36.799Z,20.16
2018-05-26T20:30:04.967Z,20.09
2018-05-26T20:32:33.148Z,20.04
2018-05-26T20:35:01.308Z,20.01
2018-05-26T20:37:29.504Z,19.96
2018-05-26T20:39:57.658Z,19.92
2018-05-26T20:42:25.796Z,19.87
2018-05-26T20:44:53.994Z,19.83
2018-05-26T20:47:24.525Z,19.78
2018-05-26T20:49:52.680Z,19.73
2018-05-26T20:52:20.853Z,19.70
2018-05-26T20:54:49.030Z,19.68
2018-05-26T20:57:17.199Z,19.67
2018-05-26T20:59:45.412Z,19.65
2018-05-26T21:04:46.382Z,19.53
2018-05-26T21:07:14.558Z,19.50
2018-05-26T21:09:42.744Z,19.43
2018-05-26T21:12:14.386Z,19.37
2018-05-26T21:14:42.582Z,19.34
2018-05-26T21:17:11.493Z,19.31
2018-05-26T21:19:39.809Z,19.27
2018-05-26T21:22:07.991Z,19.24
2018-05-26T21:24:36.173Z,19.18
2018-05-26T21:27:04.349Z,19.14
2018-05-26T21:29:32.516Z,19.10
2018-05-26T21:32:00.705Z,19.06
2018-05-26T21:34:30.758Z,19.05
2018-05-26T21:36:58.935Z,19.02
2018-05-26T21:39:30.715Z,19.02
2018-05-26T21:41:58.884Z,19.00
2018-05-26T21:44:31.034Z,18.99
2018-05-26T21:46:59.239Z,18.98
2018-05-26T21:49:27.530Z,18.94
2018-05-26T21:51:55.701Z,18.91
2018-05-26T21:54:23.988Z,18.87
2018-05-26T21:56:52.167Z,18.83
2018-05-26T21:59:20.714Z,18.81
2018-05-26T22:01:48.888Z,18.79
2018-05-26T22:04:17.082Z,18.74
2018-05-26T22:06:45.278Z,18.70
2018-05-26T22:09:13.454Z,18.67
2018-05-26T22:11:41.617Z,18.66
2018-05-26T22:14:09.809Z,18.67
2018-05-26T22:16:38.009Z,18.66
2018-05-26T22:19:06.252Z,18.62
2018-05-26T22:21:34.423Z,18.56
2018-05-26T22:24:02.595Z,18.51
2018-05-26T22:26:31.566Z,18.46
2018-05-26T22:28:59.771Z,18.40
2018-05-26T22:31:27.933Z,18.34
2018-05-26T22:33:56.114Z,18.27
2018-05-26T22:36:24.303Z,18.22
2018-05-26T22:38:52.522Z,18.16
2018-05-26T22:41:20.865Z,18.13
2018-05-26T22:43:49.863Z,18.08
2018-05-26T22:46:18.150Z,18.06
2018-05-26T22:48:46.309Z,18.03
2018-05-26T22:51:14.548Z,18.02
2018-05-26T22:53:46.655Z,18.01
2018-05-26T22:56:16.123Z,17.98
2018-05-26T22:58:44.277Z,17.94
2018-05-26T23:01:22.900Z,17.86
2018-05-26T23:03:51.085Z,17.86
2018-05-26T23:06:19.257Z,17.84
2018-05-26T23:08:47.482Z,17.82
2018-05-26T23:11:17.026Z,17.81
2018-05-26T23:13:45.961Z,17.76
2018-05-26T23:16:14.133Z,17.71
2018-05-26T23:18:42.338Z,17.68
2018-05-26T23:21:11.660Z,17.62
2018-05-26T23:23:39.861Z,17.61
2018-05-26T23:28:56.422Z,17.60
2018-05-26T23:31:24.578Z,17.59
2018-05-26T23:33:52.841Z,17.58
2018-05-26T23:36:21.008Z,17.59
2018-05-26T23:38:50.274Z,17.60
2018-05-26T23:41:18.508Z,17.58
2018-05-26T23:43:46.716Z,17.55
2018-05-26T23:46:14.892Z,17.57
2018-05-26T23:48:43.070Z,17.56
2018-05-26T23:51:13.043Z,17.55
2018-05-26T23:53:41.219Z,17.55
2018-05-26T23:56:09.409Z,17.53
2018-05-26T23:58:40.216Z,17.52
